CheckWX is a tool to help pilots better visualize weather data.  It is not intended as a substitute for an official pre-flight weather briefing.

02:41:41 UTC

DAON TAF
Zenata – Messali El Hadj Airport
Tlemcen, Algeria
TAF DAON 251100Z 2512/2612 34008KT 9999 SCT023 BKN233 BECMG 2520/2523 VRB02KT BECMG 2609/2612 02008KT 9999 FEW023CB SCT220

May-25@
12:00 UTC

May-25 @ 12:00 UTC

May-25@
20:00 UTC

May-25 @ 20:00 UTC

TAF DAON 251100Z 2512/2612 34008KT 9999 SCT023 BKN233

Expired

Wind
  • 340° at 8 KTS
Cloud Levels
  • Scattered at 2,300' AGL
  • Broken at 23,300' AGL

May-25@
20:00 UTC

May-25 @ 20:00 UTC

May-26@
09:00 UTC

May-26 @ 09:00 UTC

BECMG 2520/2523 VRB02KT

Becoming

Becoming Conditions expected by Mon, May 25, 2020 @ 23:00 UTC

Wind
  • Variable at 2 KTS
Cloud Levels
  • Scattered at 2,300' AGL
  • Broken at 23,300' AGL

May-26@
09:00 UTC

May-26 @ 09:00 UTC

May-26@
12:00 UTC

May-26 @ 12:00 UTC

BECMG 2609/2612 02008KT 9999 FEW023CB SCT220

Becoming

Becoming Conditions expected by Tue, May 26, 2020 @ 12:00 UTC

Wind
  • 020° at 8 KTS
Cloud Levels
  • Few at 2,300' AGL
  • Scattered at 22,000' AGL